Terminal Aerodrome Forecast
Issued by NWS Hastings, NE

Current Version | Previous Version | Text Only | Print | Product List | Glossary On
Versions: 1 2 3 4 5 6 7 8 9 10 11 12 13 14 15 16 17 18 19 20 21
000
FTUS45 KGID 261720
TAFEAR
TAF
KEAR 261720Z 2618/2718 34021G29KT P6SM OVC025
     FM262100 34018G26KT P6SM OVC025
     FM270200 VRB06KT P6SM SCT030 BKN100
     FM271600 15011KT P6SM BKN150
      AMD LTD TO CLD VIS AND WIND=

USA.gov is the U.S. government's official web portal to all federal, state and local government web resources and services.